sensor_id;sensor_type;location;lat;lon;timestamp;pressure;altitude;pressure_sealevel;temperature;humidity
73558;BME280;61829;53.286;10.434;2022-07-10T00:01:55;101919.31;;;14.46;69.60
73558;BME280;61829;53.286;10.434;2022-07-10T00:04:20;101922.41;;;14.43;69.14
73558;BME280;61829;53.286;10.434;2022-07-10T00:06:46;101927.84;;;14.43;69.31
73558;BME280;61829;53.286;10.434;2022-07-10T00:09:13;101921.47;;;14.36;69.12
73558;BME280;61829;53.286;10.434;2022-07-10T00:11:41;101923.34;;;14.35;69.79
73558;BME280;61829;53.286;10.434;2022-07-10T00:14:07;101921.47;;;14.36;69.06
73558;BME280;61829;53.286;10.434;2022-07-10T00:16:33;101923.97;;;14.37;69.76
73558;BME280;61829;53.286;10.434;2022-07-10T00:18:59;101920.63;;;14.35;70.08
73558;BME280;61829;53.286;10.434;2022-07-10T00:21:24;101925.38;;;14.33;69.84
73558;BME280;61829;53.286;10.434;2022-07-10T00:23:50;101915.66;;;14.24;70.22
73558;BME280;61829;53.286;10.434;2022-07-10T00:26:16;101919.19;;;14.25;70.79
73558;BME280;61829;53.286;10.434;2022-07-10T00:28:42;101923.78;;;14.24;70.55
73558;BME280;61829;53.286;10.434;2022-07-10T00:31:08;101920.03;;;14.25;71.33
73558;BME280;61829;53.286;10.434;2022-07-10T00:33:36;101918.34;;;14.24;71.41
73558;BME280;61829;53.286;10.434;2022-07-10T00:36:04;101920.75;;;14.19;71.88
73558;BME280;61829;53.286;10.434;2022-07-10T00:38:30;101910.94;;;14.18;71.60
73558;BME280;61829;53.286;10.434;2022-07-10T00:40:57;101911.28;;;14.15;71.50
73558;BME280;61829;53.286;10.434;2022-07-10T00:43:23;101917.59;;;14.15;71.90
73558;BME280;61829;53.286;10.434;2022-07-10T00:45:49;101911.13;;;14.17;71.66
73558;BME280;61829;53.286;10.434;2022-07-10T00:48:15;101909.44;;;14.15;71.92
73558;BME280;61829;53.286;10.434;2022-07-10T00:50:43;101905.41;;;14.11;71.97
73558;BME280;61829;53.286;10.434;2022-07-10T00:53:11;101904.09;;;14.07;71.46
73558;BME280;61829;53.286;10.434;2022-07-10T00:55:38;101893.25;;;14.07;71.80
73558;BME280;61829;53.286;10.434;2022-07-10T00:58:07;101895.97;;;14.07;72.04
73558;BME280;61829;53.286;10.434;2022-07-10T01:04:52;101891.59;;;13.98;72.37
73558;BME280;61829;53.286;10.434;2022-07-10T01:07:18;101900.59;;;13.99;72.73
73558;BME280;61829;53.286;10.434;2022-07-10T01:09:43;101898.25;;;13.96;72.58
73558;BME280;61829;53.286;10.434;2022-07-10T01:12:11;101900.66;;;13.90;73.08
73558;BME280;61829;53.286;10.434;2022-07-10T01:14:37;101898.78;;;13.91;72.88
73558;BME280;61829;53.286;10.434;2022-07-10T01:17:07;101896.44;;;13.88;73.90
73558;BME280;61829;53.286;10.434;2022-07-10T01:19:34;101898.31;;;13.87;73.29
73558;BME280;61829;53.286;10.434;2022-07-10T01:22:00;101893.91;;;13.86;73.76
73558;BME280;61829;53.286;10.434;2022-07-10T01:24:25;101889.50;;;13.85;73.37
73558;BME280;61829;53.286;10.434;2022-07-10T01:26:52;101889.69;;;13.84;74.34
73558;BME280;61829;53.286;10.434;2022-07-10T01:29:17;101891.56;;;13.83;74.41
73558;BME280;61829;53.286;10.434;2022-07-10T01:31:43;101881.75;;;13.82;74.14
73558;BME280;61829;53.286;10.434;2022-07-10T01:34:10;101886.34;;;13.82;73.94
73558;BME280;61829;53.286;10.434;2022-07-10T01:36:37;101888.53;;;13.78;74.75
73558;BME280;61829;53.286;10.434;2022-07-10T01:39:04;101879.75;;;13.76;74.98
73558;BME280;61829;53.286;10.434;2022-07-10T01:41:29;101876.56;;;13.73;74.47
73558;BME280;61829;53.286;10.434;2022-07-10T01:43:55;101866.28;;;13.68;74.97
73558;BME280;61829;53.286;10.434;2022-07-10T01:46:21;101867.28;;;13.67;75.34
73558;BME280;61829;53.286;10.434;2022-07-10T01:48:47;101865.13;;;13.62;75.06
73558;BME280;61829;53.286;10.434;2022-07-10T01:51:13;101865.66;;;13.58;74.97
73558;BME280;61829;53.286;10.434;2022-07-10T01:53:40;101864.34;;;13.54;74.61
73558;BME280;61829;53.286;10.434;2022-07-10T01:56:08;101864.69;;;13.51;74.51
73558;BME280;61829;53.286;10.434;2022-07-10T01:58:34;101855.91;;;13.48;74.46
73558;BME280;61829;53.286;10.434;2022-07-10T02:01:01;101867.78;;;13.47;74.77
73558;BME280;61829;53.286;10.434;2022-07-10T02:03:27;101880.63;;;13.45;75.36
73558;BME280;61829;53.286;10.434;2022-07-10T02:06:21;101872.88;;;13.42;74.59
73558;BME280;61829;53.286;10.434;2022-07-10T02:08:47;101864.59;;;13.36;75.09
73558;BME280;61829;53.286;10.434;2022-07-10T02:11:13;101863.94;;;13.34;75.24
73558;BME280;61829;53.286;10.434;2022-07-10T02:13:39;101863.63;;;13.29;76.07
73558;BME280;61829;53.286;10.434;2022-07-10T02:16:05;101867.66;;;13.24;75.95
73558;BME280;61829;53.286;10.434;2022-07-10T02:18:31;101860.09;;;13.20;76.48
73558;BME280;61829;53.286;10.434;2022-07-10T02:20:57;101852.84;;;13.12;77.06
73558;BME280;61829;53.286;10.434;2022-07-10T02:23:23;101847.63;;;13.11;76.59
73558;BME280;61829;53.286;10.434;2022-07-10T02:25:49;101844.59;;;13.06;77.43
73558;BME280;61829;53.286;10.434;2022-07-10T02:28:15;101838.50;;;13.03;76.95
73558;BME280;61829;53.286;10.434;2022-07-10T02:30:42;101856.44;;;13.04;75.83
73558;BME280;61829;53.286;10.434;2022-07-10T02:33:08;101858.66;;;13.01;77.93
73558;BME280;61829;53.286;10.434;2022-07-10T02:35:34;101859.69;;;13.00;78.01
73558;BME280;61829;53.286;10.434;2022-07-10T02:37:59;101861.53;;;12.99;77.34
73558;BME280;61829;53.286;10.434;2022-07-10T02:40:25;101859.16;;;12.96;77.43
73558;BME280;61829;53.286;10.434;2022-07-10T02:42:51;101853.75;;;12.96;76.52
73558;BME280;61829;53.286;10.434;2022-07-10T02:45:17;101852.91;;;12.96;77.88
73558;BME280;61829;53.286;10.434;2022-07-10T02:47:43;101860.72;;;12.91;78.16
73558;BME280;61829;53.286;10.434;2022-07-10T02:50:08;101862.41;;;12.92;77.92
73558;BME280;61829;53.286;10.434;2022-07-10T02:52:34;101855.81;;;12.94;77.70
73558;BME280;61829;53.286;10.434;2022-07-10T02:55:01;101850.22;;;12.96;77.66
73558;BME280;61829;53.286;10.434;2022-07-10T02:57:27;101861.72;;;12.98;78.59
73558;BME280;61829;53.286;10.434;2022-07-10T02:59:53;101854.63;;;12.97;78.29
73558;BME280;61829;53.286;10.434;2022-07-10T03:02:19;101853.94;;;12.95;78.45
73558;BME280;61829;53.286;10.434;2022-07-10T03:04:45;101852.06;;;12.95;78.25
73558;BME280;61829;53.286;10.434;2022-07-10T03:07:10;101861.03;;;12.96;78.57
73558;BME280;61829;53.286;10.434;2022-07-10T03:09:36;101853.59;;;12.98;79.11
73558;BME280;61829;53.286;10.434;2022-07-10T03:12:02;101864.91;;;13.01;78.77
73558;BME280;61829;53.286;10.434;2022-07-10T03:14:28;101860.31;;;13.02;79.02
73558;BME280;61829;53.286;10.434;2022-07-10T03:16:54;101854.75;;;13.03;78.45
73558;BME280;61829;53.286;10.434;2022-07-10T03:19:19;101852.72;;;13.06;79.10
73558;BME280;61829;53.286;10.434;2022-07-10T03:21:45;101861.50;;;13.08;79.97
73558;BME280;61829;53.286;10.434;2022-07-10T03:24:12;101852.53;;;13.07;78.53
73558;BME280;61829;53.286;10.434;2022-07-10T03:26:37;101845.09;;;13.09;79.12
73558;BME280;61829;53.286;10.434;2022-07-10T03:29:03;101845.75;;;13.11;78.28
73558;BME280;61829;53.286;10.434;2022-07-10T03:31:29;101847.78;;;13.09;80.34
73558;BME280;61829;53.286;10.434;2022-07-10T03:33:55;101843.22;;;13.10;79.00
73558;BME280;61829;53.286;10.434;2022-07-10T03:36:21;101849.13;;;13.13;79.78
73558;BME280;61829;53.286;10.434;2022-07-10T03:38:47;101849.13;;;13.13;77.83
73558;BME280;61829;53.286;10.434;2022-07-10T03:41:15;101846.09;;;13.16;78.77
73558;BME280;61829;53.286;10.434;2022-07-10T03:43:41;101850.28;;;13.19;78.29
73558;BME280;61829;53.286;10.434;2022-07-10T03:46:07;101843.84;;;13.20;78.32
73558;BME280;61829;53.286;10.434;2022-07-10T03:48:33;101854.31;;;13.23;79.06
73558;BME280;61829;53.286;10.434;2022-07-10T03:50:59;101844.16;;;13.25;79.13
73558;BME280;61829;53.286;10.434;2022-07-10T03:53:26;101844.84;;;13.27;78.71
73558;BME280;61829;53.286;10.434;2022-07-10T03:55:53;101849.25;;;13.28;80.38
73558;BME280;61829;53.286;10.434;2022-07-10T03:58:19;101838.44;;;13.28;78.56
73558;BME280;61829;53.286;10.434;2022-07-10T04:00:45;101840.94;;;13.30;78.79
73558;BME280;61829;53.286;10.434;2022-07-10T04:03:11;101834.69;;;13.29;78.76
73558;BME280;61829;53.286;10.434;2022-07-10T04:05:39;101843.66;;;13.30;79.38
73558;BME280;61829;53.286;10.434;2022-07-10T04:08:06;101838.06;;;13.31;78.62
73558;BME280;61829;53.286;10.434;2022-07-10T04:10:32;101840.41;;;13.34;80.10
73558;BME280;61829;53.286;10.434;2022-07-10T04:12:58;101839.22;;;13.37;77.96
73558;BME280;61829;53.286;10.434;2022-07-10T04:15:24;101836.84;;;13.42;77.96
73558;BME280;61829;53.286;10.434;2022-07-10T04:17:51;101831.91;;;13.45;77.62
73558;BME280;61829;53.286;10.434;2022-07-10T04:20:18;101830.84;;;13.46;77.82
73558;BME280;61829;53.286;10.434;2022-07-10T04:22:44;101827.78;;;13.50;77.53
73558;BME280;61829;53.286;10.434;2022-07-10T04:25:11;101828.47;;;13.52;77.52
73558;BME280;61829;53.286;10.434;2022-07-10T04:27:37;101823.88;;;13.52;76.98
73558;BME280;61829;53.286;10.434;2022-07-10T04:30:04;101823.34;;;13.57;76.56
73558;BME280;61829;53.286;10.434;2022-07-10T04:32:30;101826.72;;;13.59;77.20
73558;BME280;61829;53.286;10.434;2022-07-10T04:34:57;101829.09;;;13.62;77.04
73558;BME280;61829;53.286;10.434;2022-07-10T04:37:23;101831.44;;;13.65;78.40
73558;BME280;61829;53.286;10.434;2022-07-10T04:39:49;101833.78;;;13.68;76.98
73558;BME280;61829;53.286;10.434;2022-07-10T04:42:15;101833.56;;;13.69;77.09
73558;BME280;61829;53.286;10.434;2022-07-10T04:44:42;101832.38;;;13.72;75.97
73558;BME280;61829;53.286;10.434;2022-07-10T04:47:08;101833.88;;;13.75;75.60
73558;BME280;61829;53.286;10.434;2022-07-10T04:49:34;101833.34;;;13.79;76.11
73558;BME280;61829;53.286;10.434;2022-07-10T04:52:00;101838.75;;;13.79;76.00
73558;BME280;61829;53.286;10.434;2022-07-10T04:54:26;101836.91;;;13.80;75.91
73558;BME280;61829;53.286;10.434;2022-07-10T04:56:52;101834.19;;;13.80;75.36
73558;BME280;61829;53.286;10.434;2022-07-10T04:59:18;101833.81;;;13.83;75.51
73558;BME280;61829;53.286;10.434;2022-07-10T05:01:43;101839.25;;;13.83;74.66
73558;BME280;61829;53.286;10.434;2022-07-10T05:04:10;101841.78;;;13.84;75.08
73558;BME280;61829;53.286;10.434;2022-07-10T05:06:36;101840.75;;;13.85;73.68
73558;BME280;61829;53.286;10.434;2022-07-10T05:09:02;101837.56;;;13.82;75.27
73558;BME280;61829;53.286;10.434;2022-07-10T05:11:28;101839.78;;;13.78;74.08
73558;BME280;61829;53.286;10.434;2022-07-10T05:13:55;101827.94;;;13.79;74.87
73558;BME280;61829;53.286;10.434;2022-07-10T05:16:21;101831.94;;;13.83;75.35
73558;BME280;61829;53.286;10.434;2022-07-10T05:18:47;101833.44;;;13.86;74.80
73558;BME280;61829;53.286;10.434;2022-07-10T05:21:13;101834.78;;;13.90;75.14
73558;BME280;61829;53.286;10.434;2022-07-10T05:23:39;101836.94;;;13.95;74.58
73558;BME280;61829;53.286;10.434;2022-07-10T05:26:05;101820.97;;;14.00;74.79
73558;BME280;61829;53.286;10.434;2022-07-10T05:28:32;101830.41;;;14.04;74.22
73558;BME280;61829;53.286;10.434;2022-07-10T05:30:58;101840.53;;;14.10;73.68
73558;BME280;61829;53.286;10.434;2022-07-10T05:33:24;101836.91;;;14.18;73.24
73558;BME280;61829;53.286;10.434;2022-07-10T05:35:53;101833.28;;;14.25;73.46
73558;BME280;61829;53.286;10.434;2022-07-10T05:38:20;101842.00;;;14.35;73.56
73558;BME280;61829;53.286;10.434;2022-07-10T05:40:45;101835.75;;;14.50;74.06
73558;BME280;61829;53.286;10.434;2022-07-10T05:43:12;101842.69;;;14.67;72.64
73558;BME280;61829;53.286;10.434;2022-07-10T05:45:38;101846.06;;;14.84;71.66
73558;BME280;61829;53.286;10.434;2022-07-10T05:48:04;101849.50;;;14.93;70.94
73558;BME280;61829;53.286;10.434;2022-07-10T05:50:30;101845.28;;;15.05;71.53
73558;BME280;61829;53.286;10.434;2022-07-10T05:52:56;101845.63;;;15.17;71.86
73558;BME280;61829;53.286;10.434;2022-07-10T05:55:21;101845.34;;;15.26;71.95
73558;BME280;61829;53.286;10.434;2022-07-10T05:57:47;101843.81;;;15.39;70.24
73558;BME280;61829;53.286;10.434;2022-07-10T06:00:13;101845.91;;;15.58;70.67
73558;BME280;61829;53.286;10.434;2022-07-10T06:02:40;101846.06;;;15.71;68.05
73558;BME280;61829;53.286;10.434;2022-07-10T06:05:06;101843.22;;;15.80;68.05
73558;BME280;61829;53.286;10.434;2022-07-10T06:07:33;101844.56;;;15.90;68.35
73558;BME280;61829;53.286;10.434;2022-07-10T06:09:58;101850.00;;;16.12;67.27
73558;BME280;61829;53.286;10.434;2022-07-10T06:12:24;101840.16;;;16.39;65.57
73558;BME280;61829;53.286;10.434;2022-07-10T06:14:50;101840.44;;;16.79;64.74
73558;BME280;61829;53.286;10.434;2022-07-10T06:17:16;101840.50;;;17.47;61.93
73558;BME280;61829;53.286;10.434;2022-07-10T06:19:42;101833.25;;;18.14;60.33
73558;BME280;61829;53.286;10.434;2022-07-10T06:22:08;101837.28;;;19.03;57.01
73558;BME280;61829;53.286;10.434;2022-07-10T06:24:52;101844.38;;;19.17;54.03
73558;BME280;61829;53.286;10.434;2022-07-10T06:27:18;101833.78;;;19.27;54.51
73558;BME280;61829;53.286;10.434;2022-07-10T06:29:44;101833.19;;;19.25;53.39
73558;BME280;61829;53.286;10.434;2022-07-10T06:32:09;101838.53;;;19.07;53.14
73558;BME280;61829;53.286;10.434;2022-07-10T06:34:35;101832.97;;;18.75;53.74
73558;BME280;61829;53.286;10.434;2022-07-10T06:37:01;101836.34;;;18.57;54.37
73558;BME280;61829;53.286;10.434;2022-07-10T06:39:32;101849.41;;;18.29;54.23
73558;BME280;61829;53.286;10.434;2022-07-10T06:41:59;101836.59;;;18.23;54.94
73558;BME280;61829;53.286;10.434;2022-07-10T06:44:25;101844.78;;;18.23;54.50
73558;BME280;61829;53.286;10.434;2022-07-10T06:46:51;101838.72;;;18.01;55.42
73558;BME280;61829;53.286;10.434;2022-07-10T06:49:35;101844.38;;;18.12;54.77
73558;BME280;61829;53.286;10.434;2022-07-10T06:52:02;101832.63;;;17.79;53.55
73558;BME280;61829;53.286;10.434;2022-07-10T06:54:27;101834.72;;;17.97;53.89
73558;BME280;61829;53.286;10.434;2022-07-10T06:56:53;101832.84;;;18.10;52.63
73558;BME280;61829;53.286;10.434;2022-07-10T06:59:19;101840.59;;;18.07;54.31
73558;BME280;61829;53.286;10.434;2022-07-10T07:01:45;101839.13;;;18.24;52.71
73558;BME280;61829;53.286;10.434;2022-07-10T07:04:11;101843.31;;;18.27;52.81
73558;BME280;61829;53.286;10.434;2022-07-10T07:06:37;101843.53;;;18.05;51.87
73558;BME280;61829;53.286;10.434;2022-07-10T07:09:02;101841.84;;;18.11;51.88
73558;BME280;61829;53.286;10.434;2022-07-10T07:11:28;101832.19;;;17.88;51.59
73558;BME280;61829;53.286;10.434;2022-07-10T07:13:54;101844.56;;;17.84;51.38
73558;BME280;61829;53.286;10.434;2022-07-10T07:16:20;101833.44;;;17.86;52.71
73558;BME280;61829;53.286;10.434;2022-07-10T07:18:52;101841.78;;;17.78;52.82
73558;BME280;61829;53.286;10.434;2022-07-10T07:21:24;101828.84;;;18.06;52.46
73558;BME280;61829;53.286;10.434;2022-07-10T07:24:08;101825.81;;;18.81;50.71
73558;BME280;61829;53.286;10.434;2022-07-10T07:26:35;101828.81;;;19.18;48.98
73558;BME280;61829;53.286;10.434;2022-07-10T07:29:00;101836.31;;;19.74;46.90
73558;BME280;61829;53.286;10.434;2022-07-10T07:31:26;101831.88;;;20.23;44.58
73558;BME280;61829;53.286;10.434;2022-07-10T07:33:52;101834.13;;;20.33;44.87
73558;BME280;61829;53.286;10.434;2022-07-10T07:36:18;101834.34;;;20.56;45.06
73558;BME280;61829;53.286;10.434;2022-07-10T07:38:43;101835.88;;;20.02;43.70
73558;BME280;61829;53.286;10.434;2022-07-10T07:41:10;101840.16;;;20.41;44.08
73558;BME280;61829;53.286;10.434;2022-07-10T07:43:36;101841.84;;;20.17;44.34
73558;BME280;61829;53.286;10.434;2022-07-10T07:46:02;101829.78;;;20.44;43.09
73558;BME280;61829;53.286;10.434;2022-07-10T07:48:28;101842.84;;;19.98;43.65
73558;BME280;61829;53.286;10.434;2022-07-10T07:50:54;101840.53;;;19.63;44.13
73558;BME280;61829;53.286;10.434;2022-07-10T07:53:19;101837.22;;;19.23;45.20
73558;BME280;61829;53.286;10.434;2022-07-10T07:55:45;101844.28;;;19.76;46.07
73558;BME280;61829;53.286;10.434;2022-07-10T07:58:11;101835.19;;;20.07;42.47
73558;BME280;61829;53.286;10.434;2022-07-10T08:00:37;101828.41;;;20.16;44.18
73558;BME280;61829;53.286;10.434;2022-07-10T08:03:03;101836.25;;;20.31;43.46
73558;BME280;61829;53.286;10.434;2022-07-10T08:05:29;101844.63;;;20.36;43.05
73558;BME280;61829;53.286;10.434;2022-07-10T08:07:57;101834.34;;;20.31;43.76
73558;BME280;61829;53.286;10.434;2022-07-10T08:10:26;101834.34;;;20.06;44.70
73558;BME280;61829;53.286;10.434;2022-07-10T08:12:52;101831.63;;;20.06;44.23
73558;BME280;61829;53.286;10.434;2022-07-10T08:15:19;101829.69;;;20.13;43.95
73558;BME280;61829;53.286;10.434;2022-07-10T08:17:52;101829.22;;;20.16;43.77
73558;BME280;61829;53.286;10.434;2022-07-10T08:20:18;101823.75;;;20.16;44.78
73558;BME280;61829;53.286;10.434;2022-07-10T08:22:44;101831.06;;;20.23;43.97
73558;BME280;61829;53.286;10.434;2022-07-10T08:25:11;101815.66;;;20.03;45.46
73558;BME280;61829;53.286;10.434;2022-07-10T08:27:37;101820.19;;;20.34;43.75
73558;BME280;61829;53.286;10.434;2022-07-10T08:30:04;101821.50;;;20.75;45.50
73558;BME280;61829;53.286;10.434;2022-07-10T08:32:30;101827.50;;;20.22;44.19
73558;BME280;61829;53.286;10.434;2022-07-10T08:34:57;101826.75;;;20.95;43.20
73558;BME280;61829;53.286;10.434;2022-07-10T08:37:24;101831.75;;;20.98;42.33
73558;BME280;61829;53.286;10.434;2022-07-10T08:39:50;101838.84;;;20.88;42.83
73558;BME280;61829;53.286;10.434;2022-07-10T08:42:17;101831.16;;;20.59;42.34
73558;BME280;61829;53.286;10.434;2022-07-10T08:44:43;101830.06;;;20.17;43.97
73558;BME280;61829;53.286;10.434;2022-07-10T08:47:09;101825.41;;;20.17;43.67
73558;BME280;61829;53.286;10.434;2022-07-10T08:49:46;101828.16;;;20.17;43.55
73558;BME280;61829;53.286;10.434;2022-07-10T08:52:24;101829.31;;;20.28;43.07
73558;BME280;61829;53.286;10.434;2022-07-10T08:54:51;101830.63;;;20.88;42.85
73558;BME280;61829;53.286;10.434;2022-07-10T08:57:18;101822.72;;;20.98;41.67
73558;BME280;61829;53.286;10.434;2022-07-10T08:59:45;101832.44;;;20.94;41.42
73558;BME280;61829;53.286;10.434;2022-07-10T09:02:11;101827.19;;;20.74;41.28
73558;BME280;61829;53.286;10.434;2022-07-10T09:04:37;101819.06;;;20.67;40.78
73558;BME280;61829;53.286;10.434;2022-07-10T09:07:03;101820.88;;;20.55;42.73
73558;BME280;61829;53.286;10.434;2022-07-10T09:09:29;101827.22;;;20.49;41.64
73558;BME280;61829;53.286;10.434;2022-07-10T09:11:57;101812.88;;;20.72;40.87
73558;BME280;61829;53.286;10.434;2022-07-10T09:14:25;101806.00;;;21.18;40.23
73558;BME280;61829;53.286;10.434;2022-07-10T09:16:53;101806.66;;;21.73;39.55
73558;BME280;61829;53.286;10.434;2022-07-10T09:19:27;101803.72;;;21.98;38.50
73558;BME280;61829;53.286;10.434;2022-07-10T09:22:13;101801.81;;;21.99;37.31
73558;BME280;61829;53.286;10.434;2022-07-10T09:24:44;101810.50;;;21.84;40.44
73558;BME280;61829;53.286;10.434;2022-07-10T09:27:12;101806.19;;;22.42;39.38
73558;BME280;61829;53.286;10.434;2022-07-10T09:29:51;101818.34;;;22.34;37.95
73558;BME280;61829;53.286;10.434;2022-07-10T09:32:22;101824.56;;;22.53;37.46
73558;BME280;61829;53.286;10.434;2022-07-10T09:34:50;101813.66;;;22.47;37.30
73558;BME280;61829;53.286;10.434;2022-07-10T09:37:39;101809.00;;;22.59;37.88
73558;BME280;61829;53.286;10.434;2022-07-10T09:40:06;101823.09;;;22.27;40.04
73558;BME280;61829;53.286;10.434;2022-07-10T09:42:40;101831.44;;;22.09;39.50
73558;BME280;61829;53.286;10.434;2022-07-10T09:47:58;101824.03;;;22.09;40.44
73558;BME280;61829;53.286;10.434;2022-07-10T09:52:58;101821.75;;;22.77;39.42
73558;BME280;61829;53.286;10.434;2022-07-10T09:55:31;101821.97;;;22.87;38.13
73558;BME280;61829;53.286;10.434;2022-07-10T09:58:01;101818.16;;;23.00;37.62
73558;BME280;61829;53.286;10.434;2022-07-10T10:00:29;101823.09;;;22.62;37.41
73558;BME280;61829;53.286;10.434;2022-07-10T10:03:00;101823.69;;;22.53;40.74
73558;BME280;61829;53.286;10.434;2022-07-10T10:05:45;101826.41;;;22.64;38.23
73558;BME280;61829;53.286;10.434;2022-07-10T10:10:48;101825.94;;;22.79;35.76
73558;BME280;61829;53.286;10.434;2022-07-10T10:13:23;101823.19;;;22.79;37.39
73558;BME280;61829;53.286;10.434;2022-07-10T10:18:26;101823.44;;;23.18;35.20
73558;BME280;61829;53.286;10.434;2022-07-10T10:20:53;101831.78;;;23.52;34.83
73558;BME280;61829;53.286;10.434;2022-07-10T10:23:23;101825.41;;;22.94;35.42
73558;BME280;61829;53.286;10.434;2022-07-10T10:25:56;101816.75;;;22.74;35.41
73558;BME280;61829;53.286;10.434;2022-07-10T10:28:26;101821.94;;;22.23;37.23
73558;BME280;61829;53.286;10.434;2022-07-10T10:30:53;101814.91;;;21.85;37.65
73558;BME280;61829;53.286;10.434;2022-07-10T10:35:59;101809.72;;;22.66;35.32
73558;BME280;61829;53.286;10.434;2022-07-10T10:49:55;101811.16;;;22.57;33.90
73558;BME280;61829;53.286;10.434;2022-07-10T10:52:25;101820.88;;;21.82;34.12
73558;BME280;61829;53.286;10.434;2022-07-10T10:59:58;101804.81;;;21.97;34.79
73558;BME280;61829;53.286;10.434;2022-07-10T11:02:27;101804.72;;;22.51;36.43
73558;BME280;61829;53.286;10.434;2022-07-10T11:12:57;101800.63;;;22.66;35.62
73558;BME280;61829;53.286;10.434;2022-07-10T11:15:24;101808.69;;;22.84;34.50
73558;BME280;61829;53.286;10.434;2022-07-10T11:17:50;101809.56;;;22.84;35.16
73558;BME280;61829;53.286;10.434;2022-07-10T11:20:17;101803.59;;;22.76;34.34
73558;BME280;61829;53.286;10.434;2022-07-10T11:28:07;101807.38;;;23.10;34.87
73558;BME280;61829;53.286;10.434;2022-07-10T11:30:51;101815.63;;;23.10;34.47
73558;BME280;61829;53.286;10.434;2022-07-10T11:33:17;101813.25;;;22.78;35.90
73558;BME280;61829;53.286;10.434;2022-07-10T11:35:47;101809.47;;;22.56;35.05
73558;BME280;61829;53.286;10.434;2022-07-10T11:38:24;101810.47;;;22.26;35.46
73558;BME280;61829;53.286;10.434;2022-07-10T11:40:51;101814.41;;;22.42;36.29
73558;BME280;61829;53.286;10.434;2022-07-10T11:43:20;101809.03;;;22.35;36.93
73558;BME280;61829;53.286;10.434;2022-07-10T11:45:50;101814.75;;;22.22;36.49
73558;BME280;61829;53.286;10.434;2022-07-10T11:48:16;101810.59;;;22.19;36.25
73558;BME280;61829;53.286;10.434;2022-07-10T11:50:43;101806.53;;;22.46;38.28
73558;BME280;61829;53.286;10.434;2022-07-10T11:53:09;101805.38;;;22.70;37.25
73558;BME280;61829;53.286;10.434;2022-07-10T11:55:36;101814.75;;;22.46;37.52
73558;BME280;61829;53.286;10.434;2022-07-10T11:58:16;101815.72;;;22.39;36.58
73558;BME280;61829;53.286;10.434;2022-07-10T12:00:43;101805.44;;;22.35;36.17
73558;BME280;61829;53.286;10.434;2022-07-10T12:03:20;101806.00;;;22.02;38.89
73558;BME280;61829;53.286;10.434;2022-07-10T12:05:47;101808.84;;;21.71;38.82
73558;BME280;61829;53.286;10.434;2022-07-10T12:08:14;101821.66;;;21.59;38.62
73558;BME280;61829;53.286;10.434;2022-07-10T12:10:41;101818.75;;;21.84;40.09
73558;BME280;61829;53.286;10.434;2022-07-10T12:13:09;101803.09;;;21.73;41.21
73558;BME280;61829;53.286;10.434;2022-07-10T12:15:45;101802.16;;;21.79;38.90
73558;BME280;61829;53.286;10.434;2022-07-10T12:18:20;101808.34;;;21.63;39.75
73558;BME280;61829;53.286;10.434;2022-07-10T12:20:46;101813.47;;;21.71;37.48
73558;BME280;61829;53.286;10.434;2022-07-10T12:23:18;101814.38;;;22.07;37.99
73558;BME280;61829;53.286;10.434;2022-07-10T12:25:47;101809.03;;;22.24;36.29
73558;BME280;61829;53.286;10.434;2022-07-10T12:28:17;101812.09;;;22.04;36.00
73558;BME280;61829;53.286;10.434;2022-07-10T12:30:46;101816.59;;;21.74;36.75
73558;BME280;61829;53.286;10.434;2022-07-10T12:33:15;101815.41;;;21.82;37.17
73558;BME280;61829;53.286;10.434;2022-07-10T12:38:39;101818.66;;;22.03;36.25
73558;BME280;61829;53.286;10.434;2022-07-10T12:41:11;101819.88;;;22.18;35.64
73558;BME280;61829;53.286;10.434;2022-07-10T12:43:38;101818.00;;;22.42;33.80
73558;BME280;61829;53.286;10.434;2022-07-10T12:48:34;101814.13;;;22.79;35.94
73558;BME280;61829;53.286;10.434;2022-07-10T12:51:25;101827.00;;;22.78;36.57
73558;BME280;61829;53.286;10.434;2022-07-10T12:53:53;101835.28;;;22.55;35.55
73558;BME280;61829;53.286;10.434;2022-07-10T12:58:53;101826.59;;;22.34;35.98
73558;BME280;61829;53.286;10.434;2022-07-10T13:01:19;101820.84;;;22.48;38.04
73558;BME280;61829;53.286;10.434;2022-07-10T13:03:45;101819.63;;;22.67;35.76
73558;BME280;61829;53.286;10.434;2022-07-10T13:08:53;101825.59;;;22.64;34.87
73558;BME280;61829;53.286;10.434;2022-07-10T13:11:19;101833.84;;;22.64;36.28
73558;BME280;61829;53.286;10.434;2022-07-10T13:13:44;101838.53;;;22.52;35.69
73558;BME280;61829;53.286;10.434;2022-07-10T13:16:10;101834.22;;;22.21;36.76
73558;BME280;61829;53.286;10.434;2022-07-10T13:18:36;101830.59;;;22.08;36.58
73558;BME280;61829;53.286;10.434;2022-07-10T13:21:02;101839.94;;;21.65;38.25
73558;BME280;61829;53.286;10.434;2022-07-10T13:23:29;101838.38;;;21.58;37.78
73558;BME280;61829;53.286;10.434;2022-07-10T13:25:57;101847.06;;;21.55;38.17
73558;BME280;61829;53.286;10.434;2022-07-10T13:28:24;101851.59;;;21.49;39.41
73558;BME280;61829;53.286;10.434;2022-07-10T13:30:50;101844.84;;;21.63;38.00
73558;BME280;61829;53.286;10.434;2022-07-10T13:33:16;101838.44;;;21.81;38.16
73558;BME280;61829;53.286;10.434;2022-07-10T13:35:42;101845.56;;;21.82;37.41
73558;BME280;61829;53.286;10.434;2022-07-10T13:38:08;101843.81;;;21.88;38.14
73558;BME280;61829;53.286;10.434;2022-07-10T13:40:35;101851.63;;;21.61;39.27